Time;durP1;ratioP1;P1;durP2;ratioP2;P2;SDS_P1;SDS_P2;PMS_P1;PMS_P2;Temp;Humidity;BMP_temperature;BMP_pressure;BME280_temperature;BME280_humidity;BME280_pressure;Samples;Min_cycle;Max_cycle;Signal;HPM_P1;HPM_P2
2024/01/17 00:01:22;;;;;;;12.88;6.35;;;;;;;;;;5051116;28;20025;-62
2024/01/17 00:03:48;;;;;;;14.00;6.65;;;;;;;;;;5032869;28;20036;-62
2024/01/17 00:06:13;;;;;;;15.85;6.00;;;;;;;;;;5049177;28;20393;-62
2024/01/17 00:08:38;;;;;;;16.92;6.97;;;;;;;;;;5050975;28;20025;-62
2024/01/17 00:11:04;;;;;;;15.98;7.05;;;;;;;;;;5044020;28;20571;-62
2024/01/17 00:13:29;;;;;;;13.13;6.53;;;;;;;;;;5050929;28;20029;-62
2024/01/17 00:15:55;;;;;;;15.55;6.80;;;;;;;;;;5050676;28;20483;-63
2024/01/17 00:18:20;;;;;;;14.02;7.55;;;;;;;;;;5050989;28;20037;-62
2024/01/17 00:20:46;;;;;;;16.58;6.97;;;;;;;;;;5052044;28;20044;-63
2024/01/17 00:23:17;;;;;;;14.30;7.03;;;;;;;;;;5065654;28;20403;-62
2024/01/17 00:25:43;;;;;;;14.23;6.90;;;;;;;;;;5064983;28;20037;-62
2024/01/17 00:28:08;;;;;;;13.98;6.88;;;;;;;;;;5067482;28;20549;-62
2024/01/17 00:30:34;;;;;;;14.55;6.60;;;;;;;;;;5062912;28;20082;-62
2024/01/17 00:32:59;;;;;;;14.43;7.00;;;;;;;;;;5064230;28;20048;-61
2024/01/17 00:35:25;;;;;;;15.25;7.60;;;;;;;;;;5064642;28;20036;-62
2024/01/17 00:37:51;;;;;;;15.82;7.43;;;;;;;;;;5067777;28;20041;-62
2024/01/17 00:40:16;;;;;;;14.57;7.03;;;;;;;;;;5064459;28;20043;-62
2024/01/17 00:42:41;;;;;;;13.55;7.28;;;;;;;;;;5067305;28;20111;-63
2024/01/17 00:45:08;;;;;;;14.98;6.97;;;;;;;;;;5064198;28;20119;-62
2024/01/17 00:47:34;;;;;;;14.43;7.75;;;;;;;;;;5058973;28;20083;-62
2024/01/17 00:49:59;;;;;;;13.18;6.95;;;;;;;;;;5066380;28;20029;-63
2024/01/17 00:52:25;;;;;;;13.80;7.68;;;;;;;;;;5066607;28;20032;-63
2024/01/17 00:54:50;;;;;;;18.95;7.70;;;;;;;;;;5064142;28;20043;-63
2024/01/17 00:57:15;;;;;;;13.73;7.13;;;;;;;;;;5064960;28;20459;-63
2024/01/17 00:59:41;;;;;;;15.35;7.30;;;;;;;;;;5066245;28;20113;-62
2024/01/17 01:02:06;;;;;;;11.57;6.70;;;;;;;;;;5066945;28;20029;-62
2024/01/17 01:04:31;;;;;;;14.50;7.13;;;;;;;;;;5062584;28;20063;-62
2024/01/17 01:06:57;;;;;;;13.23;7.10;;;;;;;;;;5062000;28;20025;-63
2024/01/17 01:09:22;;;;;;;14.48;7.18;;;;;;;;;;5063192;28;20037;-62
2024/01/17 01:11:47;;;;;;;15.07;7.03;;;;;;;;;;5051300;28;20111;-62
2024/01/17 01:14:13;;;;;;;16.67;7.10;;;;;;;;;;5063964;28;20039;-62
2024/01/17 01:16:38;;;;;;;13.40;6.55;;;;;;;;;;5066428;28;20032;-62
2024/01/17 01:19:04;;;;;;;17.30;7.05;;;;;;;;;;5064803;28;20033;-62
2024/01/17 01:21:29;;;;;;;14.95;7.13;;;;;;;;;;5063560;28;20671;-63
2024/01/17 01:23:55;;;;;;;14.23;6.65;;;;;;;;;;5055825;28;20083;-62
2024/01/17 01:26:20;;;;;;;14.32;6.68;;;;;;;;;;5059743;28;20029;-63
2024/01/17 01:28:46;;;;;;;18.52;6.93;;;;;;;;;;5057706;28;20044;-62
2024/01/17 01:31:11;;;;;;;14.07;6.80;;;;;;;;;;5065835;28;20032;-62
2024/01/17 01:33:36;;;;;;;12.05;6.40;;;;;;;;;;5058888;28;20035;-62
2024/01/17 01:36:02;;;;;;;12.60;6.47;;;;;;;;;;5052360;28;20041;-63
2024/01/17 01:38:27;;;;;;;13.27;6.55;;;;;;;;;;5050016;28;20033;-62
2024/01/17 01:40:52;;;;;;;14.75;6.82;;;;;;;;;;5054200;28;20424;-63
2024/01/17 01:43:23;;;;;;;14.98;6.53;;;;;;;;;;5048949;28;20071;-63
2024/01/17 01:46:20;;;;;;;13.63;6.53;;;;;;;;;;5054015;28;20060;-62
2024/01/17 01:48:48;;;;;;;13.15;6.43;;;;;;;;;;5055142;28;20429;-63
2024/01/17 01:51:14;;;;;;;14.55;7.07;;;;;;;;;;5055807;28;20446;-62
2024/01/17 01:53:42;;;;;;;15.23;7.20;;;;;;;;;;5056348;28;20025;-63
2024/01/17 01:56:10;;;;;;;14.25;6.97;;;;;;;;;;5052909;28;20437;-62
2024/01/17 01:58:35;;;;;;;13.27;7.60;;;;;;;;;;5052200;28;20280;-61
2024/01/17 02:01:02;;;;;;;14.77;7.88;;;;;;;;;;5050132;28;20453;-61
2024/01/17 02:03:29;;;;;;;13.57;6.78;;;;;;;;;;5050977;28;20040;-63
2024/01/17 02:05:55;;;;;;;13.18;7.30;;;;;;;;;;5050254;28;20037;-62
2024/01/17 02:08:20;;;;;;;13.77;7.05;;;;;;;;;;5051073;28;20036;-61
2024/01/17 02:10:45;;;;;;;14.30;7.47;;;;;;;;;;5050695;28;20489;-63
2024/01/17 02:13:11;;;;;;;14.77;7.55;;;;;;;;;;5052717;28;20439;-63
2024/01/17 02:15:37;;;;;;;17.30;7.90;;;;;;;;;;5051434;28;20039;-63
2024/01/17 02:18:04;;;;;;;15.80;7.07;;;;;;;;;;5052290;28;20052;-62
2024/01/17 02:20:30;;;;;;;14.85;7.75;;;;;;;;;;5047739;28;20055;-62
2024/01/17 02:22:56;;;;;;;14.35;7.10;;;;;;;;;;5051694;28;20470;-63
2024/01/17 02:25:21;;;;;;;16.55;7.70;;;;;;;;;;5040706;28;20110;-62
2024/01/17 02:27:47;;;;;;;18.02;7.80;;;;;;;;;;5051455;28;20035;-62
2024/01/17 02:30:14;;;;;;;16.20;7.35;;;;;;;;;;5050745;28;20025;-62
2024/01/17 02:32:41;;;;;;;16.67;7.65;;;;;;;;;;5043224;28;20977;-62
2024/01/17 02:35:06;;;;;;;17.17;7.95;;;;;;;;;;5047649;28;20040;-61
2024/01/17 02:37:32;;;;;;;17.50;8.10;;;;;;;;;;5049342;28;20436;-62
2024/01/17 02:39:57;;;;;;;21.88;8.23;;;;;;;;;;5053092;28;20472;-62
2024/01/17 02:42:22;;;;;;;14.07;7.03;;;;;;;;;;5050843;28;20029;-61
2024/01/17 02:44:48;;;;;;;15.23;7.35;;;;;;;;;;5050411;28;20063;-61
2024/01/17 02:47:13;;;;;;;16.05;7.68;;;;;;;;;;5052025;28;20395;-62
2024/01/17 02:49:39;;;;;;;17.42;7.43;;;;;;;;;;5046709;28;20067;-61
2024/01/17 02:52:05;;;;;;;16.65;6.32;;;;;;;;;;5051884;28;20041;-61
2024/01/17 02:54:31;;;;;;;12.93;6.47;;;;;;;;;;5049008;28;20397;-61
2024/01/17 02:56:56;;;;;;;13.68;6.50;;;;;;;;;;5050361;28;20059;-60
2024/01/17 02:59:22;;;;;;;14.90;5.53;;;;;;;;;;5041512;28;20044;-61
2024/01/17 03:01:48;;;;;;;11.65;5.85;;;;;;;;;;5043546;28;20021;-61
2024/01/17 03:04:13;;;;;;;10.73;5.75;;;;;;;;;;5051755;28;20122;-61
2024/01/17 03:06:38;;;;;;;12.10;6.05;;;;;;;;;;5047708;28;20033;-61
2024/01/17 03:09:04;;;;;;;9.63;5.95;;;;;;;;;;5052689;28;20063;-61
2024/01/17 03:11:30;;;;;;;10.65;5.65;;;;;;;;;;5034227;28;20398;-61
2024/01/17 03:13:56;;;;;;;13.07;6.82;;;;;;;;;;5040132;28;20036;-62
2024/01/17 03:16:21;;;;;;;13.25;5.65;;;;;;;;;;5050131;28;20033;-61
2024/01/17 03:18:46;;;;;;;13.82;5.97;;;;;;;;;;5051282;28;20033;-61
2024/01/17 03:21:13;;;;;;;17.40;6.40;;;;;;;;;;5035856;28;20048;-62
2024/01/17 03:23:39;;;;;;;11.18;5.43;;;;;;;;;;5048713;28;20031;-62
2024/01/17 03:26:04;;;;;;;12.25;5.75;;;;;;;;;;5048210;28;20029;-61
2024/01/17 03:28:29;;;;;;;12.25;5.95;;;;;;;;;;5050602;28;20045;-64
2024/01/17 03:30:55;;;;;;;11.98;5.80;;;;;;;;;;5049714;28;20041;-63
2024/01/17 03:33:20;;;;;;;13.10;6.00;;;;;;;;;;5050624;28;20037;-60
2024/01/17 03:35:46;;;;;;;12.90;5.60;;;;;;;;;;5048371;28;20597;-62
2024/01/17 03:38:11;;;;;;;12.57;5.93;;;;;;;;;;5049828;28;20032;-62
2024/01/17 03:40:36;;;;;;;12.13;6.00;;;;;;;;;;5039431;28;20030;-62
2024/01/17 03:43:03;;;;;;;12.45;6.00;;;;;;;;;;5031766;28;20057;-63
2024/01/17 03:45:28;;;;;;;11.07;5.88;;;;;;;;;;5037953;28;20036;-62
2024/01/17 03:47:53;;;;;;;11.82;6.22;;;;;;;;;;5051030;28;20029;-62
2024/01/17 03:50:19;;;;;;;14.32;5.35;;;;;;;;;;5047788;28;20036;-62
2024/01/17 03:52:44;;;;;;;13.75;5.68;;;;;;;;;;5047231;28;20069;-63
2024/01/17 03:55:09;;;;;;;12.45;6.63;;;;;;;;;;5050380;28;20040;-63
2024/01/17 03:57:35;;;;;;;11.85;6.10;;;;;;;;;;5045919;28;20461;-62
2024/01/17 04:00:03;;;;;;;11.75;5.63;;;;;;;;;;5048064;28;20033;-62
2024/01/17 04:02:28;;;;;;;14.77;6.13;;;;;;;;;;5044721;28;20547;-62
2024/01/17 04:04:54;;;;;;;12.50;5.80;;;;;;;;;;5047393;28;20454;-63
2024/01/17 04:07:22;;;;;;;10.68;5.97;;;;;;;;;;5050744;28;20033;-63
2024/01/17 04:09:47;;;;;;;14.48;6.25;;;;;;;;;;5047329;28;20032;-63
2024/01/17 04:12:12;;;;;;;15.68;6.45;;;;;;;;;;5050180;28;20037;-62
2024/01/17 04:14:39;;;;;;;14.25;6.65;;;;;;;;;;5048555;28;20041;-63
2024/01/17 04:17:04;;;;;;;11.57;6.13;;;;;;;;;;5041417;28;20484;-62
2024/01/17 04:19:29;;;;;;;15.40;6.60;;;;;;;;;;5044909;28;20040;-63
2024/01/17 04:21:57;;;;;;;13.48;6.45;;;;;;;;;;5043598;28;20393;-62
2024/01/17 04:24:25;;;;;;;13.73;6.35;;;;;;;;;;5047767;28;20054;-62
2024/01/17 04:26:54;;;;;;;14.85;6.32;;;;;;;;;;5049425;28;20127;-62
2024/01/17 04:29:19;;;;;;;11.32;5.88;;;;;;;;;;5050088;28;20029;-62
2024/01/17 04:31:45;;;;;;;14.75;6.28;;;;;;;;;;5047033;28;20041;-62
2024/01/17 04:34:10;;;;;;;14.98;6.55;;;;;;;;;;5047565;28;20488;-63
2024/01/17 04:36:35;;;;;;;12.10;6.45;;;;;;;;;;5047311;28;20469;-62
2024/01/17 04:39:01;;;;;;;17.38;6.70;;;;;;;;;;5048074;28;20036;-62
2024/01/17 04:41:26;;;;;;;15.45;6.43;;;;;;;;;;5048615;28;20040;-63
2024/01/17 04:43:52;;;;;;;15.32;6.57;;;;;;;;;;5049974;28;20510;-61
2024/01/17 04:46:17;;;;;;;12.70;6.35;;;;;;;;;;5048529;28;20039;-61
2024/01/17 04:48:44;;;;;;;16.10;7.10;;;;;;;;;;5049260;28;20661;-62
2024/01/17 04:51:10;;;;;;;13.00;6.18;;;;;;;;;;5047021;28;20037;-63
2024/01/17 04:53:42;;;;;;;14.32;6.82;;;;;;;;;;5040974;28;20076;-62
2024/01/17 04:56:09;;;;;;;13.82;6.60;;;;;;;;;;5050559;28;20127;-62
2024/01/17 04:58:36;;;;;;;16.48;6.90;;;;;;;;;;5050221;28;20063;-63
2024/01/17 05:01:02;;;;;;;14.05;6.60;;;;;;;;;;5044998;28;20057;-61
2024/01/17 05:03:27;;;;;;;12.73;6.70;;;;;;;;;;5031060;28;20072;-62
2024/01/17 05:05:53;;;;;;;17.25;6.90;;;;;;;;;;5031234;28;20375;-63
2024/01/17 05:08:19;;;;;;;14.07;6.88;;;;;;;;;;5032128;28;20025;-63
2024/01/17 05:10:45;;;;;;;13.27;6.90;;;;;;;;;;5051421;28;20035;-62
2024/01/17 05:13:13;;;;;;;13.23;6.82;;;;;;;;;;5049059;28;20128;-63
2024/01/17 05:15:39;;;;;;;13.32;6.50;;;;;;;;;;5034041;28;20440;-62
2024/01/17 05:18:11;;;;;;;14.90;7.55;;;;;;;;;;5037938;28;20079;-63
2024/01/17 05:20:38;;;;;;;15.70;7.50;;;;;;;;;;5051437;28;20033;-62
2024/01/17 05:23:04;;;;;;;17.95;7.47;;;;;;;;;;5040246;28;20049;-63
2024/01/17 05:25:29;;;;;;;16.15;7.00;;;;;;;;;;5033711;28;20108;-60
2024/01/17 05:27:54;;;;;;;13.18;6.80;;;;;;;;;;5035299;28;20040;-63
2024/01/17 05:30:24;;;;;;;17.85;7.50;;;;;;;;;;5034635;28;20191;-63
2024/01/17 05:32:50;;;;;;;16.02;7.10;;;;;;;;;;5051179;28;20033;-64
2024/01/17 05:35:16;;;;;;;14.98;7.22;;;;;;;;;;5054349;28;20032;-63
2024/01/17 05:37:41;;;;;;;13.98;6.47;;;;;;;;;;5040104;28;20100;-63
2024/01/17 05:40:08;;;;;;;15.77;7.03;;;;;;;;;;5034488;28;20103;-62
2024/01/17 05:42:34;;;;;;;16.35;7.68;;;;;;;;;;5033379;28;20160;-63
2024/01/17 05:45:00;;;;;;;15.93;6.97;;;;;;;;;;5042253;28;20483;-63
2024/01/17 05:47:25;;;;;;;17.00;7.85;;;;;;;;;;5043517;28;20033;-66
2024/01/17 05:49:51;;;;;;;17.02;8.13;;;;;;;;;;5041015;28;20033;-68
2024/01/17 05:52:16;;;;;;;17.42;8.02;;;;;;;;;;5050230;28;20036;-63
2024/01/17 05:54:42;;;;;;;15.82;7.18;;;;;;;;;;5054391;28;20079;-62
2024/01/17 05:57:07;;;;;;;16.15;7.78;;;;;;;;;;5052781;28;20385;-62
2024/01/17 05:59:33;;;;;;;15.50;7.63;;;;;;;;;;5053073;28;20029;-62
2024/01/17 06:01:59;;;;;;;15.98;7.28;;;;;;;;;;5072571;28;20025;-62
2024/01/17 06:04:24;;;;;;;16.85;7.82;;;;;;;;;;5074111;28;20094;-63
2024/01/17 06:06:49;;;;;;;17.92;8.15;;;;;;;;;;5072600;28;20468;-63
2024/01/17 06:09:15;;;;;;;20.33;8.10;;;;;;;;;;5056731;28;20025;-63
2024/01/17 06:11:41;;;;;;;15.68;7.32;;;;;;;;;;5037637;28;20527;-63
2024/01/17 06:14:06;;;;;;;18.55;8.07;;;;;;;;;;5033932;28;20468;-64
2024/01/17 06:16:32;;;;;;;17.73;8.40;;;;;;;;;;5061814;28;20029;-64
2024/01/17 06:19:00;;;;;;;17.48;8.32;;;;;;;;;;5058442;28;20059;-63
2024/01/17 06:21:26;;;;;;;16.90;8.20;;;;;;;;;;5057175;28;20061;-63
2024/01/17 06:23:53;;;;;;;15.30;7.60;;;;;;;;;;5043166;28;20041;-63
2024/01/17 06:26:18;;;;;;;16.52;8.02;;;;;;;;;;5047890;28;20125;-65
2024/01/17 06:28:44;;;;;;;15.10;7.38;;;;;;;;;;5051204;28;20064;-63
2024/01/17 06:31:09;;;;;;;17.08;7.65;;;;;;;;;;5053500;28;20035;-63
2024/01/17 06:33:34;;;;;;;16.52;7.95;;;;;;;;;;5052586;28;20378;-63
2024/01/17 06:36:00;;;;;;;16.55;7.30;;;;;;;;;;5046719;28;20040;-63
2024/01/17 06:38:25;;;;;;;15.55;7.80;;;;;;;;;;5051997;28;20020;-65
2024/01/17 06:40:50;;;;;;;15.52;7.47;;;;;;;;;;5050262;28;20462;-63
2024/01/17 06:43:16;;;;;;;15.55;7.65;;;;;;;;;;5047405;28;20072;-64
2024/01/17 06:45:42;;;;;;;17.20;7.90;;;;;;;;;;5038708;28;20044;-64
2024/01/17 06:48:08;;;;;;;18.02;7.40;;;;;;;;;;5053130;28;20040;-64
2024/01/17 06:50:33;;;;;;;15.52;7.30;;;;;;;;;;5045279;28;20044;-64
2024/01/17 06:52:59;;;;;;;13.50;6.90;;;;;;;;;;5042146;28;20094;-64
2024/01/17 06:55:25;;;;;;;16.20;7.50;;;;;;;;;;5036189;28;20086;-64
2024/01/17 06:57:51;;;;;;;19.63;7.15;;;;;;;;;;5051741;28;20264;-64
2024/01/17 07:00:17;;;;;;;13.52;7.07;;;;;;;;;;5052234;28;20466;-63
2024/01/17 07:02:43;;;;;;;17.00;7.22;;;;;;;;;;5051889;28;20036;-63
2024/01/17 07:05:08;;;;;;;14.27;6.63;;;;;;;;;;5051871;28;20231;-63
2024/01/17 07:07:34;;;;;;;14.48;7.22;;;;;;;;;;5047314;28;20033;-64
2024/01/17 07:10:00;;;;;;;15.48;6.82;;;;;;;;;;5042471;28;20107;-65
2024/01/17 07:12:25;;;;;;;17.15;7.07;;;;;;;;;;5051543;28;20099;-63
2024/01/17 07:14:54;;;;;;;15.57;7.05;;;;;;;;;;5051851;28;20036;-63
2024/01/17 07:17:19;;;;;;;14.90;6.80;;;;;;;;;;5045159;28;20094;-65
2024/01/17 07:19:45;;;;;;;14.82;6.40;;;;;;;;;;5051707;28;20036;-65
2024/01/17 07:22:10;;;;;;;16.08;7.43;;;;;;;;;;5051802;28;20053;-64
2024/01/17 07:24:36;;;;;;;15.55;6.97;;;;;;;;;;5058486;28;20035;-64
2024/01/17 07:27:01;;;;;;;17.52;6.97;;;;;;;;;;5052138;28;20052;-61
2024/01/17 07:29:27;;;;;;;23.95;9.68;;;;;;;;;;5052522;28;20380;-61
2024/01/17 07:31:52;;;;;;;31.00;11.77;;;;;;;;;;5050704;28;20074;-63
2024/01/17 07:34:18;;;;;;;32.20;11.15;;;;;;;;;;5038824;28;20029;-64
2024/01/17 07:36:43;;;;;;;26.13;10.38;;;;;;;;;;5043018;28;20058;-63
2024/01/17 07:39:10;;;;;;;26.98;9.88;;;;;;;;;;5041430;28;20064;-64
2024/01/17 07:41:36;;;;;;;19.85;8.73;;;;;;;;;;5040452;28;20112;-64
2024/01/17 07:44:02;;;;;;;19.23;8.20;;;;;;;;;;5032057;28;20116;-63
2024/01/17 07:46:27;;;;;;;20.92;8.43;;;;;;;;;;5040887;28;20033;-62
2024/01/17 07:48:53;;;;;;;17.77;8.52;;;;;;;;;;5034883;28;20033;-62
2024/01/17 07:51:19;;;;;;;17.05;8.75;;;;;;;;;;5039491;28;20033;-63
2024/01/17 07:53:44;;;;;;;15.93;8.27;;;;;;;;;;5033162;28;20029;-63
2024/01/17 07:56:09;;;;;;;16.63;8.30;;;;;;;;;;5038132;28;20382;-63
2024/01/17 07:58:35;;;;;;;18.77;7.95;;;;;;;;;;5051384;28;20055;-63
2024/01/17 08:01:00;;;;;;;18.60;8.20;;;;;;;;;;5051832;28;20032;-64
2024/01/17 08:03:26;;;;;;;14.55;7.75;;;;;;;;;;5036161;28;20447;-64
2024/01/17 08:05:51;;;;;;;18.95;8.23;;;;;;;;;;5034158;28;20282;-63
2024/01/17 08:08:17;;;;;;;16.25;7.60;;;;;;;;;;5049607;28;20029;-65
2024/01/17 08:10:42;;;;;;;15.57;7.05;;;;;;;;;;5050823;28;20602;-62
2024/01/17 08:13:07;;;;;;;17.17;7.68;;;;;;;;;;5037817;28;20033;-62
2024/01/17 08:15:33;;;;;;;14.18;7.45;;;;;;;;;;5032022;28;20030;-62
2024/01/17 08:17:58;;;;;;;14.60;7.03;;;;;;;;;;5050459;28;20025;-63
2024/01/17 08:20:23;;;;;;;16.08;7.60;;;;;;;;;;5031737;28;20037;-63
2024/01/17 08:22:49;;;;;;;16.38;7.88;;;;;;;;;;5047306;28;20133;-63
2024/01/17 08:25:14;;;;;;;15.02;7.50;;;;;;;;;;5051592;28;20485;-62
2024/01/17 08:27:40;;;;;;;18.10;7.57;;;;;;;;;;5050786;28;20035;-63
2024/01/17 08:30:09;;;;;;;18.92;7.78;;;;;;;;;;5035152;28;20048;-62
2024/01/17 08:32:35;;;;;;;14.98;7.43;;;;;;;;;;5046579;28;20091;-62
2024/01/17 08:35:00;;;;;;;14.55;7.78;;;;;;;;;;5051438;28;20037;-62
2024/01/17 08:37:25;;;;;;;19.95;8.52;;;;;;;;;;5051438;28;20025;-63
2024/01/17 08:39:51;;;;;;;14.02;7.32;;;;;;;;;;5036599;28;20382;-63
2024/01/17 08:42:16;;;;;;;19.02;8.50;;;;;;;;;;5044073;28;20106;-62
2024/01/17 08:44:45;;;;;;;14.13;7.65;;;;;;;;;;5053720;28;20457;-64
2024/01/17 08:47:11;;;;;;;20.67;8.38;;;;;;;;;;5053720;28;20140;-63
2024/01/17 08:49:40;;;;;;;18.08;8.27;;;;;;;;;;5052490;28;20116;-63
2024/01/17 08:52:06;;;;;;;18.00;8.43;;;;;;;;;;5051802;28;20405;-62
2024/01/17 08:54:31;;;;;;;16.83;8.18;;;;;;;;;;5035459;28;20038;-63
2024/01/17 08:56:57;;;;;;;16.98;8.60;;;;;;;;;;5043229;28;20024;-62
2024/01/17 08:59:23;;;;;;;19.58;8.75;;;;;;;;;;5043968;28;20607;-62
2024/01/17 09:01:48;;;;;;;17.90;8.63;;;;;;;;;;5041561;28;20033;-63
2024/01/17 09:04:13;;;;;;;16.33;8.65;;;;;;;;;;5055102;28;20036;-63
2024/01/17 09:06:39;;;;;;;19.95;9.18;;;;;;;;;;5054424;28;20029;-63
2024/01/17 09:09:06;;;;;;;19.48;9.23;;;;;;;;;;5048220;28;20029;-63
2024/01/17 09:11:31;;;;;;;21.02;9.57;;;;;;;;;;5045536;28;20037;-64
2024/01/17 09:13:57;;;;;;;17.35;9.38;;;;;;;;;;5053779;28;20031;-63
2024/01/17 09:16:23;;;;;;;16.60;9.23;;;;;;;;;;5054899;28;20025;-62
2024/01/17 09:18:48;;;;;;;19.92;9.20;;;;;;;;;;5051291;28;20056;-63
2024/01/17 09:21:14;;;;;;;17.98;9.27;;;;;;;;;;5050681;28;20079;-63
2024/01/17 09:23:39;;;;;;;20.98;8.38;;;;;;;;;;5054233;28;20028;-64
2024/01/17 09:26:05;;;;;;;18.98;9.07;;;;;;;;;;5054907;28;20032;-62
2024/01/17 09:28:31;;;;;;;21.88;9.40;;;;;;;;;;5053042;28;20037;-63
2024/01/17 09:30:56;;;;;;;19.63;8.73;;;;;;;;;;5033661;28;20556;-63
2024/01/17 09:33:22;;;;;;;16.38;8.30;;;;;;;;;;5043555;28;20528;-62
2024/01/17 09:35:48;;;;;;;17.65;8.80;;;;;;;;;;5040919;28;20037;-62
2024/01/17 09:38:14;;;;;;;14.88;8.25;;;;;;;;;;5051384;28;20040;-63
2024/01/17 09:40:39;;;;;;;17.05;8.82;;;;;;;;;;5054089;28;20040;-62
2024/01/17 09:43:06;;;;;;;15.25;8.15;;;;;;;;;;5068426;28;20029;-62
2024/01/17 09:45:32;;;;;;;15.48;8.75;;;;;;;;;;5034967;28;20420;-62
2024/01/17 09:47:58;;;;;;;21.80;9.48;;;;;;;;;;5048227;28;20033;-64
2024/01/17 09:50:23;;;;;;;15.65;8.50;;;;;;;;;;5052909;28;20452;-62
2024/01/17 09:52:49;;;;;;;19.35;8.68;;;;;;;;;;5066085;28;20111;-61
2024/01/17 09:55:19;;;;;;;18.98;8.98;;;;;;;;;;5073763;28;20119;-63
2024/01/17 09:57:50;;;;;;;18.63;9.02;;;;;;;;;;5073114;28;20078;-63
2024/01/17 10:00:16;;;;;;;17.48;8.20;;;;;;;;;;5064387;28;20029;-63
2024/01/17 10:02:42;;;;;;;17.60;8.85;;;;;;;;;;5044643;28;20040;-63
2024/01/17 10:05:09;;;;;;;18.10;8.02;;;;;;;;;;5054006;28;20362;-63
2024/01/17 10:07:36;;;;;;;15.77;8.05;;;;;;;;;;5052246;28;20025;-63
2024/01/17 10:10:01;;;;;;;15.90;8.60;;;;;;;;;;5053073;28;20033;-63
2024/01/17 10:12:27;;;;;;;13.75;7.93;;;;;;;;;;5053930;28;20050;-63
2024/01/17 10:14:52;;;;;;;15.82;7.65;;;;;;;;;;5051822;28;20412;-63
2024/01/17 10:17:19;;;;;;;15.95;7.68;;;;;;;;;;5041418;28;20029;-63
2024/01/17 10:19:44;;;;;;;16.35;8.13;;;;;;;;;;5052676;28;20476;-64
2024/01/17 10:22:10;;;;;;;15.40;8.50;;;;;;;;;;5059161;28;20091;-63
2024/01/17 10:24:37;;;;;;;17.77;8.23;;;;;;;;;;5073529;28;20059;-62
2024/01/17 10:27:03;;;;;;;15.52;9.13;;;;;;;;;;5056815;28;20040;-63
2024/01/17 10:29:39;;;;;;;18.85;8.88;;;;;;;;;;5045525;28;20045;-63
2024/01/17 10:32:05;;;;;;;16.25;8.63;;;;;;;;;;5044033;28;20112;-63
2024/01/17 10:34:31;;;;;;;19.92;9.60;;;;;;;;;;5053221;28;20512;-63
2024/01/17 10:36:57;;;;;;;16.98;9.20;;;;;;;;;;5051167;28;20033;-69
2024/01/17 10:39:25;;;;;;;14.90;8.68;;;;;;;;;;5055045;28;20112;-62
2024/01/17 10:41:54;;;;;;;15.13;8.55;;;;;;;;;;5051695;28;20427;-63
2024/01/17 10:44:23;;;;;;;15.63;9.30;;;;;;;;;;5053131;28;20104;-62
2024/01/17 10:46:53;;;;;;;20.42;8.77;;;;;;;;;;5049516;28;20025;-63
2024/01/17 10:49:19;;;;;;;17.30;9.23;;;;;;;;;;5053013;28;20052;-62
2024/01/17 10:52:11;;;;;;;17.35;9.52;;;;;;;;;;5042959;28;20044;-64
2024/01/17 10:54:45;;;;;;;14.90;8.40;;;;;;;;;;5060036;28;20028;-64
2024/01/17 10:57:13;;;;;;;17.13;9.07;;;;;;;;;;5047721;28;20029;-63
2024/01/17 10:59:49;;;;;;;18.63;9.25;;;;;;;;;;5051861;28;20029;-63
2024/01/17 11:02:18;;;;;;;18.55;8.73;;;;;;;;;;5044402;28;20465;-63
2024/01/17 11:04:46;;;;;;;17.60;8.82;;;;;;;;;;5036727;28;20115;-63
2024/01/17 11:07:13;;;;;;;17.55;9.02;;;;;;;;;;5035409;28;20044;-63
2024/01/17 11:09:40;;;;;;;17.73;8.98;;;;;;;;;;5033044;28;20061;-62
2024/01/17 11:12:06;;;;;;;19.35;9.38;;;;;;;;;;5034799;28;20108;-64
2024/01/17 11:14:33;;;;;;;18.10;9.07;;;;;;;;;;5050543;28;20091;-63
2024/01/17 11:17:03;;;;;;;21.38;9.48;;;;;;;;;;5043314;28;20029;-62
2024/01/17 11:19:33;;;;;;;15.57;8.77;;;;;;;;;;5045916;28;20045;-63
2024/01/17 11:22:00;;;;;;;16.33;9.32;;;;;;;;;;5052357;28;20061;-62
2024/01/17 11:24:44;;;;;;;15.43;9.00;;;;;;;;;;5054515;28;20521;-63
2024/01/17 11:27:29;;;;;;;19.83;9.15;;;;;;;;;;5052396;28;20032;-62
2024/01/17 11:30:08;;;;;;;17.27;9.02;;;;;;;;;;5032679;28;20045;-63
2024/01/17 11:32:53;;;;;;;18.50;9.45;;;;;;;;;;5037723;28;20031;-63
2024/01/17 11:35:44;;;;;;;16.40;8.77;;;;;;;;;;5050297;28;20033;-62
2024/01/17 11:38:27;;;;;;;18.02;9.60;;;;;;;;;;5051721;28;20095;-62
2024/01/17 11:40:54;;;;;;;23.42;9.65;;;;;;;;;;5050178;28;20470;-62
2024/01/17 11:43:20;;;;;;;18.00;9.35;;;;;;;;;;5047758;28;20477;-63
2024/01/17 11:45:53;;;;;;;19.42;10.00;;;;;;;;;;5049614;28;20045;-63
2024/01/17 11:48:26;;;;;;;22.27;10.15;;;;;;;;;;5040597;28;20784;-62
2024/01/17 11:51:00;;;;;;;20.02;9.57;;;;;;;;;;5031858;28;20095;-63
2024/01/17 11:53:27;;;;;;;18.83;9.60;;;;;;;;;;5041734;28;20208;-64
2024/01/17 11:55:54;;;;;;;19.38;10.05;;;;;;;;;;5030951;28;20056;-62
2024/01/17 11:58:21;;;;;;;18.50;9.65;;;;;;;;;;5042450;28;20469;-62
2024/01/17 12:00:50;;;;;;;18.40;10.13;;;;;;;;;;5051584;28;20051;-62
2024/01/17 12:03:36;;;;;;;19.45;10.55;;;;;;;;;;5051772;28;20112;-63
2024/01/17 12:06:02;;;;;;;19.95;9.80;;;;;;;;;;5040507;28;20045;-61
2024/01/17 12:08:28;;;;;;;18.90;10.13;;;;;;;;;;5034960;28;20465;-62
2024/01/17 12:10:54;;;;;;;19.00;10.88;;;;;;;;;;5030757;28;20474;-63
2024/01/17 12:13:22;;;;;;;19.40;10.35;;;;;;;;;;5042698;28;20513;-64
2024/01/17 12:15:51;;;;;;;19.65;10.43;;;;;;;;;;5034239;28;20041;-63
2024/01/17 12:18:20;;;;;;;19.00;10.13;;;;;;;;;;5043469;28;20033;-63
2024/01/17 12:20:48;;;;;;;21.15;10.98;;;;;;;;;;5042525;28;20465;-62
2024/01/17 12:23:17;;;;;;;18.67;10.43;;;;;;;;;;5042584;28;20080;-62
2024/01/17 12:25:43;;;;;;;18.90;10.30;;;;;;;;;;5049408;28;20047;-63
2024/01/17 12:28:09;;;;;;;18.60;10.60;;;;;;;;;;5048145;28;20032;-62
2024/01/17 12:30:35;;;;;;;20.75;10.27;;;;;;;;;;5036094;28;20037;-63
2024/01/17 12:33:00;;;;;;;18.92;9.90;;;;;;;;;;5036430;28;20381;-63
2024/01/17 12:35:26;;;;;;;20.55;10.70;;;;;;;;;;5048996;28;20024;-62
2024/01/17 12:37:51;;;;;;;17.92;10.25;;;;;;;;;;5049674;28;20488;-63
2024/01/17 12:40:17;;;;;;;16.55;9.68;;;;;;;;;;5047032;28;20381;-63
2024/01/17 12:42:42;;;;;;;19.35;10.05;;;;;;;;;;5052140;28;20029;-63
2024/01/17 12:45:08;;;;;;;18.48;10.23;;;;;;;;;;5050535;28;20302;-62
2024/01/17 12:47:34;;;;;;;18.58;10.65;;;;;;;;;;5051472;28;20040;-62
2024/01/17 12:50:00;;;;;;;18.50;10.52;;;;;;;;;;5050533;28;20029;-62
2024/01/17 12:52:25;;;;;;;17.90;9.85;;;;;;;;;;5037417;28;20501;-62
2024/01/17 12:54:50;;;;;;;20.88;10.18;;;;;;;;;;5050774;28;20037;-62
2024/01/17 12:57:17;;;;;;;21.83;10.63;;;;;;;;;;5050784;28;20036;-62
2024/01/17 12:59:42;;;;;;;21.40;10.80;;;;;;;;;;5043039;28;20049;-62
2024/01/17 13:02:14;;;;;;;19.13;10.00;;;;;;;;;;5045991;28;20040;-62
2024/01/17 13:04:40;;;;;;;18.30;9.43;;;;;;;;;;5037124;28;20057;-64
2024/01/17 13:07:05;;;;;;;19.17;10.20;;;;;;;;;;5045633;28;20072;-64
2024/01/17 13:09:32;;;;;;;17.38;9.48;;;;;;;;;;5048837;28;21643;-64
2024/01/17 13:11:58;;;;;;;17.17;9.73;;;;;;;;;;5036537;28;20029;-62
2024/01/17 13:14:24;;;;;;;18.75;9.93;;;;;;;;;;5051172;28;20036;-63
2024/01/17 13:16:50;;;;;;;16.58;10.00;;;;;;;;;;5050746;28;20033;-61
2024/01/17 13:19:19;;;;;;;17.58;9.38;;;;;;;;;;5050877;28;20033;-62
2024/01/17 13:21:47;;;;;;;22.88;10.35;;;;;;;;;;5035218;28;20470;-62
2024/01/17 13:24:13;;;;;;;19.17;10.30;;;;;;;;;;5047250;28;20036;-62
2024/01/17 13:26:38;;;;;;;20.65;10.77;;;;;;;;;;5051034;28;20446;-62
2024/01/17 13:29:04;;;;;;;20.88;11.35;;;;;;;;;;5043742;28;20045;-62
2024/01/17 13:31:31;;;;;;;20.50;10.82;;;;;;;;;;5035035;28;20472;-62
2024/01/17 13:33:58;;;;;;;18.15;10.25;;;;;;;;;;5049297;28;20033;-62
2024/01/17 13:36:27;;;;;;;19.98;10.23;;;;;;;;;;5050873;28;20065;-62
2024/01/17 13:38:53;;;;;;;20.27;10.40;;;;;;;;;;5042046;28;20036;-62
2024/01/17 13:41:21;;;;;;;17.60;10.15;;;;;;;;;;5039319;28;20031;-62
2024/01/17 13:43:47;;;;;;;19.90;10.07;;;;;;;;;;5061779;28;20094;-62
2024/01/17 13:46:13;;;;;;;19.45;9.93;;;;;;;;;;5073647;28;20043;-62
2024/01/17 13:48:38;;;;;;;17.58;9.50;;;;;;;;;;5074333;28;20028;-62
2024/01/17 13:51:04;;;;;;;20.48;10.30;;;;;;;;;;5072337;28;20029;-62
2024/01/17 13:53:32;;;;;;;24.67;10.95;;;;;;;;;;5068913;28;20059;-61
2024/01/17 13:55:59;;;;;;;28.92;12.65;;;;;;;;;;5053180;28;20098;-62
2024/01/17 13:58:27;;;;;;;22.73;10.98;;;;;;;;;;5049215;28;20381;-62
2024/01/17 14:00:57;;;;;;;22.27;11.45;;;;;;;;;;5053402;28;20072;-62
2024/01/17 14:03:23;;;;;;;25.40;11.00;;;;;;;;;;5053642;28;20127;-62
2024/01/17 14:05:48;;;;;;;22.42;11.13;;;;;;;;;;5050953;28;20056;-62
2024/01/17 14:08:13;;;;;;;23.67;10.85;;;;;;;;;;5037915;28;20059;-63
2024/01/17 14:10:39;;;;;;;19.10;10.10;;;;;;;;;;5053980;28;20033;-62
2024/01/17 14:13:04;;;;;;;21.02;9.80;;;;;;;;;;5047579;28;20024;-63
2024/01/17 14:15:30;;;;;;;21.90;10.68;;;;;;;;;;5053387;28;20430;-63
2024/01/17 14:17:57;;;;;;;21.95;10.95;;;;;;;;;;5052767;28;20491;-63
2024/01/17 14:20:23;;;;;;;20.55;10.88;;;;;;;;;;5053201;28;20033;-64
2024/01/17 14:22:49;;;;;;;18.35;10.27;;;;;;;;;;5052928;28;20516;-64
2024/01/17 14:25:15;;;;;;;19.95;10.32;;;;;;;;;;5051309;28;20048;-63